Hudson, Wisconsin
Current Conditions -  °F | °C
As of 12:30 PM on Sunday 21 Dec 2014 (Local Time) from K21D Reporting Station
Light Snow Light Snow  
Wind Chill: 29°   Ceiling: 300
Heat Index: 34°   Visibility: 2mi
Dew Point: 32°   Wind: 6mph
Humidity: 93%   Direction: 150°SSE
Pressure: 29.82"   Gusts: NA
Location:  44.98°N, 92.76°W
Report Text: K21D 211830Z AUTO 15005KT 2SM -SN OVC003 01/00 A2982 RMK AO2 P0001
Loading
Personal Weather Stations






























Interactive Weather Map New forecast layout! Learn more

10-Day Weather Forecast

Advertisements
Track Severe Weather on mobile